createdAt,value
2023-03-26T00:01:26.689Z,5.85
2023-03-26T00:03:57.961Z,5.60
2023-03-26T00:06:27.611Z,3.88
2023-03-26T00:08:57.356Z,6.55
2023-03-26T00:11:26.545Z,5.07
2023-03-26T00:13:56.895Z,6.63
2023-03-26T00:16:26.493Z,4.57
2023-03-26T00:18:53.692Z,9.27
2023-03-26T00:21:27.948Z,6.75
2023-03-26T00:24:00.878Z,4.93
2023-03-26T00:26:31.203Z,5.72
2023-03-26T00:29:00.659Z,7.95
2023-03-26T00:31:27.770Z,5.05
2023-03-26T00:33:55.652Z,5.97
2023-03-26T00:36:25.539Z,8.05
2023-03-26T00:38:53.922Z,5.72
2023-03-26T00:41:26.174Z,4.63
2023-03-26T00:43:59.559Z,3.95
2023-03-26T00:46:29.111Z,6.45
2023-03-26T00:48:59.961Z,7.50
2023-03-26T00:51:28.455Z,6.43
2023-03-26T00:53:57.088Z,7.28
2023-03-26T00:56:24.333Z,8.18
2023-03-26T00:58:51.586Z,7.13
2023-03-26T01:01:27.950Z,8.70
2023-03-26T01:04:08.787Z,7.80
2023-03-26T01:06:39.585Z,4.32
2023-03-26T01:09:20.826Z,4.80
2023-03-26T01:11:49.625Z,9.45
2023-03-26T01:14:23.677Z,4.45
2023-03-26T01:16:55.073Z,6.40
2023-03-26T01:19:46.168Z,7.28
2023-03-26T01:22:22.301Z,5.47
2023-03-26T01:24:56.718Z,11.30
2023-03-26T01:27:52.076Z,9.02
2023-03-26T01:30:43.599Z,7.03
2023-03-26T01:33:30.157Z,7.45
2023-03-26T01:36:42.815Z,3.58
2023-03-26T01:39:25.297Z,5.60
2023-03-26T01:42:02.889Z,4.25
2023-03-26T01:44:41.182Z,6.85
2023-03-26T01:47:09.647Z,9.20
2023-03-26T01:49:36.411Z,4.75
2023-03-26T01:52:06.373Z,6.20
2023-03-26T01:54:34.221Z,10.85
2023-03-26T01:57:12.048Z,6.40
2023-03-26T02:00:01.537Z,5.68
2023-03-26T02:02:34.428Z,7.13
2023-03-26T02:05:04.194Z,4.35
2023-03-26T02:07:51.251Z,7.50
2023-03-26T02:10:28.053Z,5.95
2023-03-26T02:12:55.804Z,9.32
2023-03-26T02:15:22.745Z,7.32
2023-03-26T02:17:49.814Z,9.15
2023-03-26T02:20:18.867Z,5.75
2023-03-26T02:22:47.319Z,11.00
2023-03-26T02:25:19.985Z,10.05
2023-03-26T02:27:50.606Z,8.07
2023-03-26T02:30:21.790Z,8.30
2023-03-26T02:32:52.228Z,8.13
2023-03-26T02:35:22.363Z,5.90
2023-03-26T02:37:54.071Z,7.68
2023-03-26T02:40:22.461Z,7.30
2023-03-26T02:42:51.106Z,9.05
2023-03-26T02:45:18.076Z,8.32
2023-03-26T02:48:03.769Z,9.45
2023-03-26T02:50:54.352Z,7.43
2023-03-26T02:53:56.784Z,11.52
2023-03-26T02:56:43.651Z,9.55
2023-03-26T02:59:39.497Z,4.82
2023-03-26T03:02:29.562Z,10.05
2023-03-26T03:05:05.928Z,7.22
2023-03-26T03:07:37.985Z,7.72
2023-03-26T03:10:10.117Z,8.45
2023-03-26T03:13:07.768Z,10.25
2023-03-26T03:15:35.217Z,5.05
2023-03-26T03:18:02.746Z,7.38
2023-03-26T03:20:35.139Z,6.18
2023-03-26T03:23:02.565Z,4.88
2023-03-26T03:25:30.542Z,9.00
2023-03-26T03:27:57.424Z,4.55
2023-03-26T03:30:24.518Z,10.07
2023-03-26T03:33:09.839Z,11.32
2023-03-26T03:35:38.313Z,4.32
2023-03-26T03:38:05.368Z,4.25
2023-03-26T03:40:41.332Z,7.40
2023-03-26T03:43:08.429Z,8.05
2023-03-26T03:45:43.883Z,7.18
2023-03-26T03:48:25.799Z,6.97
2023-03-26T03:50:53.950Z,6.93
2023-03-26T03:53:26.754Z,9.60
2023-03-26T03:55:57.437Z,8.82
2023-03-26T03:58:35.759Z,5.60
2023-03-26T04:01:11.170Z,7.13
2023-03-26T04:03:53.617Z,7.68
2023-03-26T04:06:25.322Z,8.02
2023-03-26T04:08:53.911Z,5.45
2023-03-26T04:11:22.626Z,6.68
2023-03-26T04:14:08.570Z,14.63
2023-03-26T04:16:58.325Z,8.25
2023-03-26T04:19:27.471Z,12.15
2023-03-26T04:21:55.422Z,11.27
2023-03-26T04:24:24.541Z,10.68
2023-03-26T04:27:18.938Z,12.25
2023-03-26T04:29:49.624Z,8.98
2023-03-26T04:32:30.148Z,7.90
2023-03-26T04:35:00.647Z,5.60
2023-03-26T04:37:34.648Z,10.32
2023-03-26T04:40:15.121Z,11.27
2023-03-26T04:42:54.764Z,7.55
2023-03-26T04:45:34.798Z,7.22
2023-03-26T04:48:02.375Z,6.07
2023-03-26T04:50:29.884Z,4.35
2023-03-26T04:52:58.316Z,7.63
2023-03-26T04:56:12.925Z,9.27
2023-03-26T04:59:16.270Z,10.85
2023-03-26T05:01:46.094Z,10.48
2023-03-26T05:04:15.519Z,6.90
2023-03-26T05:06:42.910Z,9.35
2023-03-26T05:09:20.790Z,8.27
2023-03-26T05:12:14.090Z,8.00
2023-03-26T05:15:06.385Z,7.10
2023-03-26T05:17:44.817Z,8.88
2023-03-26T05:20:24.794Z,5.28
2023-03-26T05:22:52.410Z,9.13
2023-03-26T05:25:24.597Z,13.35
2023-03-26T05:27:52.451Z,9.55
2023-03-26T05:30:22.446Z,10.85
2023-03-26T05:32:54.543Z,9.32
2023-03-26T05:35:26.603Z,10.63
2023-03-26T05:37:54.239Z,11.32
2023-03-26T05:40:23.869Z,13.23
2023-03-26T05:42:57.237Z,6.72
2023-03-26T05:45:44.368Z,7.85
2023-03-26T05:48:22.902Z,8.85
2023-03-26T05:50:51.042Z,10.65
2023-03-26T05:53:20.541Z,8.27
2023-03-26T05:55:50.612Z,8.82
2023-03-26T05:58:36.606Z,9.23
2023-03-26T06:01:22.923Z,6.88
2023-03-26T06:04:08.544Z,9.05
2023-03-26T06:06:39.987Z,11.43
2023-03-26T06:09:07.963Z,7.93
2023-03-26T06:11:35.228Z,5.40
2023-03-26T06:14:04.112Z,9.98
2023-03-26T06:16:32.528Z,6.05
2023-03-26T06:19:25.806Z,9.45
2023-03-26T06:21:58.736Z,6.93
2023-03-26T06:24:30.876Z,9.98
2023-03-26T06:27:22.409Z,7.57
2023-03-26T06:30:12.390Z,8.70
2023-03-26T06:32:47.055Z,7.38
2023-03-26T06:35:19.414Z,5.10
2023-03-26T06:37:47.104Z,5.60
2023-03-26T06:40:15.802Z,6.72
2023-03-26T06:43:15.051Z,5.57
2023-03-26T06:46:01.719Z,6.75
2023-03-26T06:48:38.410Z,6.85
2023-03-26T06:51:17.113Z,8.88
2023-03-26T06:54:10.536Z,12.70
2023-03-26T06:56:55.031Z,7.25
2023-03-26T06:59:22.239Z,9.85
2023-03-26T07:02:10.672Z,8.00
2023-03-26T07:04:56.200Z,6.43
2023-03-26T07:07:46.503Z,7.38
2023-03-26T07:10:20.102Z,7.65
2023-03-26T07:13:05.662Z,7.53
2023-03-26T07:15:58.892Z,4.18
2023-03-26T07:18:57.768Z,16.88
2023-03-26T07:21:31.020Z,20.23
2023-03-26T07:23:58.181Z,8.63
2023-03-26T07:26:58.775Z,13.10
2023-03-26T07:29:40.580Z,7.65
2023-03-26T07:32:45.753Z,7.35
2023-03-26T07:35:44.294Z,8.63
2023-03-26T07:39:05.444Z,8.00
2023-03-26T07:42:01.673Z,6.78
2023-03-26T07:45:02.293Z,10.48
2023-03-26T07:48:09.546Z,7.70
2023-03-26T07:50:57.346Z,9.68
2023-03-26T07:53:45.362Z,7.60
2023-03-26T07:56:40.868Z,7.30
2023-03-26T07:59:50.916Z,10.07
2023-03-26T08:03:03.711Z,6.00
2023-03-26T08:06:15.566Z,5.70
2023-03-26T08:09:06.717Z,6.28
2023-03-26T08:12:06.796Z,6.65
2023-03-26T08:14:46.983Z,10.18
2023-03-26T08:17:16.250Z,8.55
2023-03-26T08:20:09.115Z,7.05
2023-03-26T08:22:41.092Z,8.85
2023-03-26T08:25:19.729Z,8.40
2023-03-26T08:27:55.961Z,6.18
2023-03-26T08:30:25.047Z,10.15
2023-03-26T08:32:56.832Z,4.65
2023-03-26T08:35:25.847Z,8.55
2023-03-26T08:37:53.243Z,10.18
2023-03-26T08:41:02.987Z,6.70
2023-03-26T08:43:44.653Z,3.50
2023-03-26T08:46:15.239Z,5.15
2023-03-26T08:48:47.911Z,5.55
2023-03-26T08:51:20.722Z,2.72
2023-03-26T08:53:47.491Z,2.00
2023-03-26T08:56:50.566Z,3.92
2023-03-26T08:59:56.646Z,1.85
2023-03-26T09:02:35.499Z,4.32
2023-03-26T09:05:38.289Z,0.82
2023-03-26T09:08:32.351Z,2.85
2023-03-26T09:11:28.528Z,2.97
2023-03-26T09:14:23.013Z,3.17
2023-03-26T09:17:25.334Z,1.45
2023-03-26T09:20:14.260Z,2.22
2023-03-26T09:23:02.733Z,1.75
2023-03-26T09:25:55.152Z,2.58
2023-03-26T09:28:46.844Z,4.18
2023-03-26T09:31:16.791Z,1.33
2023-03-26T09:33:59.896Z,2.80
2023-03-26T09:36:39.064Z,4.38
2023-03-26T09:39:35.400Z,2.67
2023-03-26T09:42:27.424Z,2.72
2023-03-26T09:45:35.655Z,3.17
2023-03-26T09:48:38.913Z,1.25
2023-03-26T09:51:32.364Z,2.72
2023-03-26T09:54:14.886Z,4.28
2023-03-26T09:57:05.218Z,2.75
2023-03-26T09:59:47.589Z,2.45
2023-03-26T10:02:47.103Z,3.42
2023-03-26T10:05:26.771Z,3.78
2023-03-26T10:08:10.337Z,3.45
2023-03-26T10:11:03.322Z,1.95
2023-03-26T10:14:03.825Z,2.70
2023-03-26T10:17:15.605Z,3.58
2023-03-26T10:20:04.966Z,1.45
2023-03-26T10:22:42.401Z,2.63
2023-03-26T10:25:40.941Z,4.30
2023-03-26T10:28:25.961Z,4.78
2023-03-26T10:31:46.228Z,4.90
2023-03-26T10:34:46.898Z,4.18
2023-03-26T10:37:26.092Z,7.05
2023-03-26T10:40:05.883Z,9.85
2023-03-26T10:43:14.311Z,10.52
2023-03-26T10:46:05.333Z,3.60
2023-03-26T10:48:54.178Z,4.47
2023-03-26T10:51:51.529Z,3.30
2023-03-26T10:54:27.068Z,4.95
2023-03-26T10:56:55.522Z,5.32
2023-03-26T10:59:23.886Z,4.65
2023-03-26T11:02:35.388Z,5.72
2023-03-26T11:05:19.979Z,4.85
2023-03-26T11:08:02.103Z,2.30
2023-03-26T11:10:50.836Z,2.78
2023-03-26T11:13:38.871Z,3.67
2023-03-26T11:16:33.721Z,2.40
2023-03-26T11:19:27.692Z,1.33
2023-03-26T11:22:23.729Z,5.55
2023-03-26T11:25:04.434Z,5.53
2023-03-26T11:27:55.678Z,4.57
2023-03-26T11:30:58.312Z,2.97
2023-03-26T11:34:36.908Z,6.60
2023-03-26T11:36:24.335Z,4.05
2023-03-26T11:38:53.620Z,4.82
2023-03-26T11:41:28.423Z,4.95
2023-03-26T11:44:18.650Z,2.15
2023-03-26T11:46:47.101Z,2.55
2023-03-26T11:49:18.396Z,2.60
2023-03-26T11:51:47.888Z,2.17
2023-03-26T11:54:15.317Z,4.20
2023-03-26T11:57:05.527Z,2.22
2023-03-26T11:59:57.680Z,3.90
2023-03-26T12:02:34.041Z,3.30
2023-03-26T12:05:31.314Z,4.90
2023-03-26T12:08:01.391Z,3.70
2023-03-26T12:10:35.038Z,4.15
2023-03-26T12:13:43.319Z,2.58
2023-03-26T12:16:18.510Z,2.88
2023-03-26T12:18:57.072Z,2.60
2023-03-26T12:21:23.973Z,2.25
2023-03-26T12:24:05.348Z,2.17
2023-03-26T12:26:37.411Z,2.22
2023-03-26T12:29:09.120Z,1.88
2023-03-26T12:31:53.240Z,2.10
2023-03-26T12:34:22.436Z,2.00
2023-03-26T12:36:56.146Z,2.75
2023-03-26T12:40:09.886Z,2.88
2023-03-26T12:44:48.416Z,2.53
2023-03-26T12:45:22.358Z,5.70
2023-03-26T12:47:57.023Z,2.50
2023-03-26T12:50:41.401Z,1.42
2023-03-26T12:53:15.200Z,1.85
2023-03-26T12:55:56.494Z,2.15
2023-03-26T12:58:39.516Z,1.75
2023-03-26T13:01:06.683Z,2.38
2023-03-26T13:03:58.257Z,1.77
2023-03-26T13:06:59.487Z,3.42
2023-03-26T13:09:36.652Z,1.75
2023-03-26T13:12:09.594Z,1.20
2023-03-26T13:15:14.237Z,1.60
2023-03-26T13:18:00.395Z,1.15
2023-03-26T13:20:30.134Z,1.02
2023-03-26T13:23:35.339Z,1.38
2023-03-26T13:26:19.892Z,0.80
2023-03-26T13:29:10.785Z,2.08
2023-03-26T13:31:58.648Z,2.15
2023-03-26T13:34:48.159Z,3.65
2023-03-26T13:37:34.217Z,3.10
2023-03-26T13:40:25.784Z,3.28
2023-03-26T13:43:22.067Z,1.88
2023-03-26T13:46:04.313Z,3.15
2023-03-26T13:49:03.604Z,6.32
2023-03-26T13:51:45.610Z,6.00
2023-03-26T13:54:21.528Z,2.05
2023-03-26T13:56:59.956Z,2.30
2023-03-26T13:59:50.536Z,7.50
2023-03-26T14:02:24.339Z,2.80
2023-03-26T14:04:57.674Z,2.90
2023-03-26T14:07:32.910Z,5.70
2023-03-26T14:10:35.870Z,1.80
2023-03-26T14:13:22.464Z,2.45
2023-03-26T14:16:13.864Z,2.85
2023-03-26T14:18:52.761Z,2.42
2023-03-26T14:21:38.316Z,6.50
2023-03-26T14:24:25.404Z,3.58
2023-03-26T14:26:58.689Z,2.83
2023-03-26T14:29:56.836Z,5.10
2023-03-26T14:33:01.131Z,2.58
2023-03-26T14:35:28.033Z,2.97
2023-03-26T14:38:33.799Z,3.17
2023-03-26T14:41:08.963Z,7.13
2023-03-26T14:43:50.908Z,5.97
2023-03-26T14:46:46.609Z,6.53
2023-03-26T14:49:39.528Z,2.13
2023-03-26T14:52:32.064Z,3.60
2023-03-26T14:55:05.971Z,3.33
2023-03-26T14:57:55.509Z,2.65
2023-03-26T15:00:45.358Z,2.42
2023-03-26T15:03:49.492Z,3.45
2023-03-26T15:06:35.224Z,2.78
2023-03-26T15:09:24.128Z,3.40
2023-03-26T15:12:14.987Z,3.33
2023-03-26T15:15:01.015Z,6.38
2023-03-26T15:17:55.391Z,5.60
2023-03-26T15:20:42.115Z,6.40
2023-03-26T15:23:28.462Z,2.38
2023-03-26T15:26:05.391Z,3.42
2023-03-26T15:29:05.944Z,2.95
2023-03-26T15:31:52.552Z,5.18
2023-03-26T15:34:30.575Z,3.17
2023-03-26T15:37:36.277Z,2.10
2023-03-26T15:40:33.510Z,2.28
2023-03-26T15:43:23.112Z,1.30
2023-03-26T15:45:56.840Z,1.75
2023-03-26T15:48:43.775Z,1.73
2023-03-26T15:51:46.439Z,0.55
2023-03-26T15:54:23.874Z,1.98
2023-03-26T15:57:10.706Z,1.13
2023-03-26T15:59:48.470Z,1.48
2023-03-26T16:02:38.432Z,1.98
2023-03-26T16:05:37.292Z,3.22
2023-03-26T16:08:17.275Z,5.93
2023-03-26T16:10:56.303Z,10.63
2023-03-26T16:13:39.816Z,2.15
2023-03-26T16:16:16.759Z,0.65
2023-03-26T16:18:57.294Z,0.57
2023-03-26T16:21:31.151Z,1.10
2023-03-26T16:24:03.584Z,0.68
2023-03-26T16:26:58.774Z,1.55
2023-03-26T16:29:28.790Z,2.78
2023-03-26T16:32:29.142Z,0.98
2023-03-26T16:35:03.121Z,0.98
2023-03-26T16:37:38.861Z,0.85
2023-03-26T16:40:21.327Z,0.75
2023-03-26T16:43:07.610Z,0.50
2023-03-26T16:45:59.188Z,0.80
2023-03-26T16:48:38.779Z,0.88
2023-03-26T16:51:22.622Z,0.40
2023-03-26T16:54:14.113Z,0.40
2023-03-26T16:57:01.175Z,1.02
2023-03-26T17:00:05.204Z,1.23
2023-03-26T17:03:15.471Z,0.38
2023-03-26T17:05:58.009Z,0.43
2023-03-26T17:08:42.386Z,0.57
2023-03-26T17:11:22.275Z,1.08
2023-03-26T17:14:18.206Z,0.80
2023-03-26T17:16:50.196Z,1.42
2023-03-26T17:19:46.947Z,1.00
2023-03-26T17:22:35.427Z,1.90
2023-03-26T17:25:52.760Z,0.73
2023-03-26T17:28:41.095Z,3.15
2023-03-26T17:31:31.670Z,0.82
2023-03-26T17:34:52.200Z,1.40
2023-03-26T17:37:23.192Z,1.33
2023-03-26T17:40:09.551Z,2.80
2023-03-26T17:43:00.897Z,1.80
2023-03-26T17:45:34.685Z,0.40
2023-03-26T17:48:26.103Z,1.60
2023-03-26T17:51:18.762Z,1.17
2023-03-26T17:53:50.608Z,6.13
2023-03-26T17:56:22.985Z,1.77
2023-03-26T17:59:11.455Z,1.25
2023-03-26T18:01:44.346Z,2.80
2023-03-26T18:04:21.648Z,2.65
2023-03-26T18:07:12.302Z,4.75
2023-03-26T18:10:13.424Z,2.15
2023-03-26T18:12:50.838Z,3.75
2023-03-26T18:15:27.408Z,3.28
2023-03-26T18:18:14.005Z,3.67
2023-03-26T18:20:44.047Z,3.00
2023-03-26T18:23:36.130Z,3.00
2023-03-26T18:26:17.091Z,9.98
2023-03-26T18:28:49.456Z,1.65
2023-03-26T18:31:26.516Z,4.40
2023-03-26T18:34:03.230Z,2.17
2023-03-26T18:36:31.488Z,1.50
2023-03-26T18:38:59.572Z,2.70
2023-03-26T18:41:41.974Z,7.53
2023-03-26T18:44:18.738Z,3.17
2023-03-26T18:46:46.403Z,3.63
2023-03-26T18:49:17.451Z,3.85
2023-03-26T18:51:56.042Z,3.03
2023-03-26T18:54:25.046Z,1.80
2023-03-26T18:56:52.798Z,1.88
2023-03-26T18:59:28.468Z,3.20
2023-03-26T19:02:00.158Z,3.72
2023-03-26T19:04:31.399Z,3.35
2023-03-26T19:06:58.712Z,4.40
2023-03-26T19:09:32.030Z,5.35
2023-03-26T19:12:06.629Z,5.07
2023-03-26T19:14:37.251Z,5.38
2023-03-26T19:17:07.052Z,3.03
2023-03-26T19:19:37.400Z,3.42
2023-03-26T19:22:06.528Z,5.72
2023-03-26T19:24:34.449Z,1.85
2023-03-26T19:27:03.343Z,3.78
2023-03-26T19:29:34.079Z,1.00
2023-03-26T19:32:15.160Z,2.22
2023-03-26T19:34:44.960Z,4.82
2023-03-26T19:37:22.974Z,2.38
2023-03-26T19:39:55.047Z,1.73
2023-03-26T19:42:26.395Z,5.72
2023-03-26T19:44:54.163Z,5.45
2023-03-26T19:47:46.147Z,4.30
2023-03-26T19:50:29.098Z,4.72
2023-03-26T19:53:16.676Z,6.13
2023-03-26T19:55:56.630Z,8.57
2023-03-26T19:58:26.294Z,7.60
2023-03-26T20:00:56.422Z,5.75
2023-03-26T20:03:46.359Z,6.70
2023-03-26T20:06:18.776Z,4.47
2023-03-26T20:08:46.643Z,4.00
2023-03-26T20:11:19.207Z,6.00
2023-03-26T20:13:47.685Z,7.82
2023-03-26T20:16:26.166Z,4.43
2023-03-26T20:18:54.067Z,4.53
2023-03-26T20:21:21.220Z,5.97
2023-03-26T20:23:48.356Z,5.28
2023-03-26T20:26:18.677Z,2.45
2023-03-26T20:28:52.589Z,3.60
2023-03-26T20:31:25.180Z,1.75
2023-03-26T20:33:54.211Z,3.30
2023-03-26T20:36:34.342Z,3.30
2023-03-26T20:39:06.019Z,2.08
2023-03-26T20:41:34.546Z,2.00
2023-03-26T20:44:03.890Z,3.55
2023-03-26T20:46:33.265Z,5.25
2023-03-26T20:49:00.602Z,3.20
2023-03-26T20:51:30.409Z,3.22
2023-03-26T20:53:58.064Z,2.47
2023-03-26T20:56:25.320Z,6.00
2023-03-26T21:01:29.251Z,3.78
2023-03-26T21:03:57.312Z,2.58
2023-03-26T21:06:24.363Z,1.95
2023-03-26T21:08:52.219Z,2.30
2023-03-26T21:11:39.551Z,4.80
2023-03-26T21:14:20.829Z,4.78
2023-03-26T21:16:48.400Z,1.77
2023-03-26T21:19:16.069Z,2.17
2023-03-26T21:21:57.839Z,2.50
2023-03-26T21:24:46.306Z,3.60
2023-03-26T21:27:26.546Z,1.88
2023-03-26T21:29:55.227Z,1.33
2023-03-26T21:32:23.277Z,2.47
2023-03-26T21:37:25.276Z,1.00
2023-03-26T21:39:52.629Z,1.95
2023-03-26T21:42:20.321Z,1.33
2023-03-26T21:44:48.571Z,1.65
2023-03-26T21:47:15.921Z,3.20
2023-03-26T21:49:43.388Z,1.63
2023-03-26T21:52:15.321Z,3.28
2023-03-26T21:54:43.366Z,0.98
2023-03-26T21:57:30.420Z,1.38
2023-03-26T22:00:07.236Z,1.27
2023-03-26T22:02:42.019Z,2.30
2023-03-26T22:05:12.265Z,3.67
2023-03-26T22:07:57.109Z,1.10
2023-03-26T22:10:24.973Z,1.58
2023-03-26T22:12:52.664Z,1.05
2023-03-26T22:15:20.209Z,1.77
2023-03-26T22:17:54.263Z,3.03
2023-03-26T22:20:25.218Z,3.63
2023-03-26T22:22:53.743Z,1.95
2023-03-26T22:25:22.429Z,0.93
2023-03-26T22:27:50.915Z,2.38
2023-03-26T22:30:18.969Z,3.45
2023-03-26T22:32:47.184Z,2.92
2023-03-26T22:35:14.820Z,3.38
2023-03-26T22:37:42.783Z,1.92
2023-03-26T22:40:13.760Z,1.13
2023-03-26T22:42:41.533Z,1.73
2023-03-26T22:45:11.801Z,4.28
2023-03-26T22:47:39.489Z,1.65
2023-03-26T22:50:07.846Z,2.03
2023-03-26T22:52:36.668Z,2.55
2023-03-26T22:55:05.325Z,1.27
2023-03-26T22:57:32.306Z,2.20
2023-03-26T23:00:12.123Z,1.95
2023-03-26T23:02:40.117Z,2.13
2023-03-26T23:05:07.355Z,1.13
2023-03-26T23:07:34.178Z,4.28
2023-03-26T23:10:00.934Z,4.50
2023-03-26T23:12:27.805Z,2.65
2023-03-26T23:14:55.334Z,2.42
2023-03-26T23:17:23.894Z,1.55
2023-03-26T23:19:51.470Z,3.28
2023-03-26T23:22:18.328Z,3.78
2023-03-26T23:24:45.410Z,2.15
2023-03-26T23:27:13.028Z,3.20
2023-03-26T23:29:39.903Z,3.10
2023-03-26T23:32:23.655Z,2.60
2023-03-26T23:34:52.784Z,2.95
2023-03-26T23:37:23.362Z,1.13
2023-03-26T23:39:51.229Z,2.60
2023-03-26T23:42:28.572Z,1.20
2023-03-26T23:44:57.031Z,1.05
2023-03-26T23:47:24.276Z,3.15
2023-03-26T23:49:51.180Z,1.77
2023-03-26T23:52:18.454Z,1.40
2023-03-26T23:54:45.631Z,0.70
2023-03-26T23:57:12.946Z,2.90
2023-03-26T23:59:41.460Z,0.95
